Time;durP1;ratioP1;P1;durP2;ratioP2;P2;SDS_P1;SDS_P2;PMS_P1;PMS_P2;Temp;Humidity;BMP_temperature;BMP_pressure;BME280_temperature;BME280_humidity;BME280_pressure;Samples;Min_cycle;Max_cycle;Signal;HPM_P1;HPM_P2
2022/06/10 00:00:04;;;;;;;;;;;12.60;99.90;;;;;;5129404;28;20487;-82
2022/06/10 00:02:30;;;;;;;;;;;12.60;99.90;;;;;;5103544;28;20394;-81
2022/06/10 00:04:55;;;;;;;;;;;12.60;99.90;;;;;;5106091;28;19923;-81
2022/06/10 00:07:21;;;;;;;;;;;12.50;99.90;;;;;;5113711;28;19971;-81
2022/06/10 00:09:46;;;;;;;;;;;12.50;99.90;;;;;;5113346;28;19927;-81
2022/06/10 00:12:12;;;;;;;;;;;12.50;99.90;;;;;;5092797;28;19949;-81
2022/06/10 00:14:37;;;;;;;;;;;12.50;99.90;;;;;;5112225;28;19923;-81
2022/06/10 00:17:03;;;;;;;;;;;12.50;99.90;;;;;;5100991;28;19963;-80
2022/06/10 00:19:29;;;;;;;;;;;12.50;99.90;;;;;;5119860;28;19924;-81
2022/06/10 00:21:54;;;;;;;;;;;12.50;99.90;;;;;;5117211;28;19967;-81
2022/06/10 00:24:20;;;;;;;;;;;12.50;99.90;;;;;;5091465;28;19934;-81
2022/06/10 00:26:45;;;;;;;;;;;12.60;99.90;;;;;;5126845;28;19924;-81
2022/06/10 00:29:14;;;;;;;;;;;12.60;99.90;;;;;;5094631;28;19972;-80
2022/06/10 00:31:40;;;;;;;;;;;12.60;99.90;;;;;;5105515;28;19928;-81
2022/06/10 00:34:06;;;;;;;;;;;12.60;99.90;;;;;;5111537;28;19949;-81
2022/06/10 00:36:31;;;;;;;;;;;12.50;99.90;;;;;;5114167;28;19924;-81
2022/06/10 00:38:57;;;;;;;;;;;12.50;99.90;;;;;;5096718;28;19967;-82
2022/06/10 00:41:22;;;;;;;;;;;12.50;99.90;;;;;;5112726;28;20429;-79
2022/06/10 00:43:48;;;;;;;;;;;12.50;99.90;;;;;;5079072;28;19930;-79
2022/06/10 00:46:14;;;;;;;;;;;12.50;99.90;;;;;;5096071;28;19919;-79
2022/06/10 00:48:42;;;;;;;;;;;12.40;99.90;;;;;;5078789;28;19932;-79
2022/06/10 00:51:17;;;;;;;;;;;12.40;99.90;;;;;;5095684;28;20032;-78
2022/06/10 00:53:43;;;;;;;;;;;12.40;99.90;;;;;;5095699;28;20368;-79
2022/06/10 00:56:11;;;;;;;;;;;12.30;99.90;;;;;;5095351;28;19924;-79
2022/06/10 00:58:42;;;;;;;;;;;12.30;99.90;;;;;;5095862;28;19924;-79
2022/06/10 01:01:08;;;;;;;;;;;12.30;99.90;;;;;;5096117;28;20374;-83
2022/06/10 01:03:35;;;;;;;;;;;12.30;99.90;;;;;;5096785;28;19924;-78
2022/06/10 01:06:01;;;;;;;;;;;12.30;99.90;;;;;;5082346;28;20010;-79
2022/06/10 01:08:26;;;;;;;;;;;12.30;99.90;;;;;;5082389;28;20394;-79
2022/06/10 01:11:10;;;;;;;;;;;12.20;99.90;;;;;;5082908;28;20342;-79
2022/06/10 01:13:42;;;;;;;;;;;12.20;99.90;;;;;;5082190;28;20016;-78
2022/06/10 01:16:12;;;;;;;;;;;12.10;99.90;;;;;;5099793;28;19989;-79
2022/06/10 01:18:41;;;;;;;;;;;12.10;99.90;;;;;;5082089;28;19999;-79
2022/06/10 01:21:25;;;;;;;;;;;12.00;99.90;;;;;;5099453;28;20237;-80
2022/06/10 01:24:09;;;;;;;;;;;12.00;99.90;;;;;;5082757;28;19966;-78
2022/06/10 01:29:50;;;;;;;;;;;11.90;99.90;;;;;;5099498;28;19972;-82
2022/06/10 01:32:22;;;;;;;;;;;11.90;99.90;;;;;;5099416;28;19930;-79
2022/06/10 01:35:08;;;;;;;;;;;11.90;99.90;;;;;;5098973;28;19923;-78
2022/06/10 01:37:50;;;;;;;;;;;11.90;99.90;;;;;;5097353;28;19954;-78
2022/06/10 01:40:24;;;;;;;;;;;11.80;99.90;;;;;;5098281;28;19970;-79
2022/06/10 01:42:59;;;;;;;;;;;11.80;99.90;;;;;;5098523;28;19971;-78
2022/06/10 01:45:40;;;;;;;;;;;11.80;99.90;;;;;;5098448;28;19944;-79
2022/06/10 01:48:08;;;;;;;;;;;11.70;99.90;;;;;;5098357;28;19972;-78
2022/06/10 01:50:37;;;;;;;;;;;11.70;99.90;;;;;;5081471;28;19923;-78
2022/06/10 01:53:05;;;;;;;;;;;11.70;99.90;;;;;;5081400;28;19965;-79
2022/06/10 01:55:35;;;;;;;;;;;11.60;99.90;;;;;;5081420;28;19924;-79
2022/06/10 01:58:09;;;;;;;;;;;11.70;99.90;;;;;;5081579;28;19981;-79
2022/06/10 02:00:36;;;;;;;;;;;11.70;99.90;;;;;;5081188;28;20015;-78
2022/06/10 02:03:21;;;;;;;;;;;11.70;99.90;;;;;;5081489;28;19931;-78
2022/06/10 02:05:58;;;;;;;;;;;11.70;99.90;;;;;;5098053;28;19923;-79
2022/06/10 02:08:31;;;;;;;;;;;11.70;99.90;;;;;;5098331;28;19936;-79
2022/06/10 02:10:56;;;;;;;;;;;11.70;99.90;;;;;;5081839;28;19931;-78
2022/06/10 02:13:25;;;;;;;;;;;11.70;99.90;;;;;;5081293;28;19920;-83
2022/06/10 02:15:53;;;;;;;;;;;11.80;99.90;;;;;;5097772;28;19923;-79
2022/06/10 02:18:25;;;;;;;;;;;11.80;99.90;;;;;;5098535;28;20088;-79
2022/06/10 02:20:54;;;;;;;;;;;11.70;99.90;;;;;;5097569;28;20026;-80
2022/06/10 02:23:22;;;;;;;;;;;11.80;99.90;;;;;;5080711;28;20402;-79
2022/06/10 02:25:50;;;;;;;;;;;11.70;99.90;;;;;;5097569;28;20305;-78
2022/06/10 02:28:18;;;;;;;;;;;11.70;99.90;;;;;;5097895;28;19938;-79
2022/06/10 02:30:53;;;;;;;;;;;11.80;99.90;;;;;;5098298;28;19975;-78
2022/06/10 02:33:19;;;;;;;;;;;11.80;99.90;;;;;;5097501;28;19931;-79
2022/06/10 02:35:54;;;;;;;;;;;11.80;99.90;;;;;;5097500;28;20007;-79
2022/06/10 02:38:20;;;;;;;;;;;11.80;99.90;;;;;;5080684;28;20263;-79
2022/06/10 02:40:55;;;;;;;;;;;11.80;99.90;;;;;;5080103;28;19930;-79
2022/06/10 02:43:21;;;;;;;;;;;11.90;99.90;;;;;;5097176;28;19924;-79
2022/06/10 02:45:59;;;;;;;;;;;11.80;99.90;;;;;;5097732;28;19969;-79
2022/06/10 02:48:44;;;;;;;;;;;11.90;99.90;;;;;;5097443;28;19924;-79
2022/06/10 02:51:09;;;;;;;;;;;11.90;99.90;;;;;;5097895;28;20259;-79
2022/06/10 02:53:35;;;;;;;;;;;12.00;99.90;;;;;;5097307;28;19930;-81
2022/06/10 02:56:01;;;;;;;;;;;12.00;99.90;;;;;;5096738;28;19946;-79
2022/06/10 03:01:30;;;;;;;;;;;12.10;99.90;;;;;;5096903;28;19970;-79
2022/06/10 03:04:17;;;;;;;;;;;12.20;99.90;;;;;;5097782;28;19980;-79
2022/06/10 03:07:01;;;;;;;;;;;12.20;99.90;;;;;;5096778;28;20001;-79
2022/06/10 03:09:37;;;;;;;;;;;12.40;99.90;;;;;;5096788;28;19924;-79
2022/06/10 03:12:09;;;;;;;;;;;12.40;99.90;;;;;;5097607;28;19947;-79
2022/06/10 03:14:35;;;;;;;;;;;12.50;99.90;;;;;;5096847;28;20014;-79
2022/06/10 03:17:06;;;;;;;;;;;12.60;99.90;;;;;;5079752;28;20440;-80
2022/06/10 03:19:47;;;;;;;;;;;12.60;99.90;;;;;;5079429;28;20379;-79
2022/06/10 03:22:23;;;;;;;;;;;12.60;99.90;;;;;;5079861;28;20011;-79
2022/06/10 03:24:55;;;;;;;;;;;12.70;99.90;;;;;;5097326;28;19924;-79
2022/06/10 03:27:32;;;;;;;;;;;12.70;99.90;;;;;;5078924;28;20009;-79
2022/06/10 03:30:05;;;;;;;;;;;12.70;99.90;;;;;;5079870;28;19924;-79
2022/06/10 03:32:35;;;;;;;;;;;12.80;99.90;;;;;;5096403;28;20010;-81
2022/06/10 03:35:13;;;;;;;;;;;12.80;99.90;;;;;;5096837;28;20028;-79
2022/06/10 03:37:39;;;;;;;;;;;12.80;99.90;;;;;;5079587;28;20253;-79
2022/06/10 03:40:05;;;;;;;;;;;12.90;99.90;;;;;;5078975;28;19931;-79
2022/06/10 03:42:30;;;;;;;;;;;12.90;99.90;;;;;;5113396;28;19935;-80
2022/06/10 03:44:57;;;;;;;;;;;12.90;99.90;;;;;;5096289;28;19924;-79
2022/06/10 03:47:25;;;;;;;;;;;13.00;99.90;;;;;;5079551;28;19924;-78
2022/06/10 03:49:57;;;;;;;;;;;13.00;99.90;;;;;;5096148;28;19924;-79
2022/06/10 03:52:25;;;;;;;;;;;13.10;99.90;;;;;;5096514;28;19919;-78
2022/06/10 03:54:50;;;;;;;;;;;13.10;99.90;;;;;;5096154;28;19935;-79
2022/06/10 03:57:17;;;;;;;;;;;13.10;99.90;;;;;;5096211;28;19924;-79
2022/06/10 03:59:46;;;;;;;;;;;13.10;99.90;;;;;;5096214;28;19924;-79
2022/06/10 04:02:12;;;;;;;;;;;13.10;99.90;;;;;;5079298;28;20018;-79
2022/06/10 04:04:38;;;;;;;;;;;13.10;99.90;;;;;;5096229;28;19978;-79
2022/06/10 04:07:04;;;;;;;;;;;13.10;99.90;;;;;;5096176;28;19924;-79
2022/06/10 04:09:30;;;;;;;;;;;13.00;99.90;;;;;;5062638;28;19955;-79
2022/06/10 04:11:56;;;;;;;;;;;13.10;99.90;;;;;;5095919;28;20363;-79
2022/06/10 04:14:22;;;;;;;;;;;13.10;99.90;;;;;;5080011;28;19924;-79
2022/06/10 04:16:47;;;;;;;;;;;13.10;99.90;;;;;;5095970;28;19931;-79
2022/06/10 04:19:13;;;;;;;;;;;13.10;99.90;;;;;;5079148;28;19927;-79
2022/06/10 04:21:39;;;;;;;;;;;13.10;99.90;;;;;;5062359;28;20363;-83
2022/06/10 04:24:04;;;;;;;;;;;13.20;99.90;;;;;;5095934;28;19924;-79
2022/06/10 04:26:30;;;;;;;;;;;13.20;99.90;;;;;;5095966;28;19932;-79
2022/06/10 04:28:56;;;;;;;;;;;13.20;99.90;;;;;;5079306;28;20293;-79
2022/06/10 04:31:21;;;;;;;;;;;13.30;99.90;;;;;;5095830;28;20348;-80
2022/06/10 04:33:47;;;;;;;;;;;13.30;99.90;;;;;;5095911;28;20022;-79
2022/06/10 04:36:18;;;;;;;;;;;13.30;99.90;;;;;;5079095;28;19969;-79
2022/06/10 04:38:44;;;;;;;;;;;13.40;99.90;;;;;;5096327;28;19974;-77
2022/06/10 04:41:10;;;;;;;;;;;13.40;99.90;;;;;;5099171;28;19967;-77
2022/06/10 04:43:36;;;;;;;;;;;13.40;99.90;;;;;;5066152;28;19959;-76
2022/06/10 04:46:03;;;;;;;;;;;13.40;99.90;;;;;;5082655;28;20259;-82
2022/06/10 04:48:28;;;;;;;;;;;13.50;99.90;;;;;;5082602;28;20015;-79
2022/06/10 04:50:54;;;;;;;;;;;13.50;99.90;;;;;;5082906;28;19975;-79
2022/06/10 04:53:20;;;;;;;;;;;13.50;99.90;;;;;;5099645;28;20256;-80
2022/06/10 04:55:45;;;;;;;;;;;13.40;99.90;;;;;;5082637;28;19924;-79
2022/06/10 04:58:11;;;;;;;;;;;13.40;99.90;;;;;;5099709;28;19927;-79
2022/06/10 05:00:39;;;;;;;;;;;13.40;99.90;;;;;;5099313;28;19931;-78
2022/06/10 05:03:05;;;;;;;;;;;13.40;99.90;;;;;;5082279;28;19943;-77
2022/06/10 05:05:31;;;;;;;;;;;13.50;99.90;;;;;;5082202;28;20024;-77
2022/06/10 05:07:57;;;;;;;;;;;13.40;99.90;;;;;;5099089;28;19924;-78
2022/06/10 05:10:23;;;;;;;;;;;13.50;99.90;;;;;;5082112;28;19924;-78
2022/06/10 05:12:50;;;;;;;;;;;13.60;99.90;;;;;;5082179;28;19931;-78
2022/06/10 05:15:20;;;;;;;;;;;13.60;99.90;;;;;;5082042;28;19924;-78
2022/06/10 05:17:46;;;;;;;;;;;13.70;99.90;;;;;;5098959;28;19991;-81
2022/06/10 05:20:14;;;;;;;;;;;13.80;99.90;;;;;;5098813;28;19930;-79
2022/06/10 05:22:40;;;;;;;;;;;13.90;99.90;;;;;;5098828;28;19979;-77
2022/06/10 05:25:06;;;;;;;;;;;14.00;99.90;;;;;;5082145;28;19924;-77
2022/06/10 05:27:31;;;;;;;;;;;14.10;99.90;;;;;;5098683;28;19973;-79
2022/06/10 05:29:57;;;;;;;;;;;14.10;99.90;;;;;;5081462;28;19946;-77
2022/06/10 05:32:22;;;;;;;;;;;14.20;99.90;;;;;;5081546;28;19923;-78
2022/06/10 05:34:48;;;;;;;;;;;14.30;99.90;;;;;;5098505;28;19924;-79
2022/06/10 05:37:15;;;;;;;;;;;14.40;99.90;;;;;;5081650;28;19931;-77
2022/06/10 05:39:41;;;;;;;;;;;14.40;99.90;;;;;;5098641;28;19923;-77
2022/06/10 05:42:09;;;;;;;;;;;14.50;99.90;;;;;;5098524;28;19938;-77
2022/06/10 05:44:42;;;;;;;;;;;14.60;99.90;;;;;;5098424;28;20015;-77
2022/06/10 05:47:09;;;;;;;;;;;14.60;99.90;;;;;;5081610;28;19923;-77
2022/06/10 05:49:36;;;;;;;;;;;14.60;99.90;;;;;;5097914;28;19928;-77
2022/06/10 05:52:02;;;;;;;;;;;14.70;99.90;;;;;;5098280;28;19971;-77
2022/06/10 05:54:27;;;;;;;;;;;14.70;99.90;;;;;;5065626;28;19931;-77
2022/06/10 05:56:53;;;;;;;;;;;14.70;99.90;;;;;;5081625;28;20376;-77
2022/06/10 05:59:18;;;;;;;;;;;14.70;99.90;;;;;;5081275;28;19931;-77
2022/06/10 06:01:44;;;;;;;;;;;14.70;99.90;;;;;;5064584;28;19930;-77
2022/06/10 06:04:10;;;;;;;;;;;14.80;99.90;;;;;;5098332;28;19939;-78
2022/06/10 06:06:35;;;;;;;;;;;14.70;99.90;;;;;;5098705;28;19924;-79
2022/06/10 06:09:01;;;;;;;;;;;14.80;99.90;;;;;;5081301;28;19966;-77
2022/06/10 06:11:27;;;;;;;;;;;14.70;99.90;;;;;;5098271;28;19976;-78
2022/06/10 06:13:52;;;;;;;;;;;14.80;99.90;;;;;;5097866;28;19924;-81
2022/06/10 06:16:18;;;;;;;;;;;14.80;99.90;;;;;;5065055;28;19931;-77
2022/06/10 06:18:44;;;;;;;;;;;14.80;99.90;;;;;;5097566;28;20045;-77
2022/06/10 06:21:10;;;;;;;;;;;14.90;99.90;;;;;;5080807;28;19927;-79
2022/06/10 06:23:36;;;;;;;;;;;14.90;99.90;;;;;;5080780;28;20019;-77
2022/06/10 06:26:03;;;;;;;;;;;14.90;99.90;;;;;;5064156;28;19971;-78
2022/06/10 06:28:29;;;;;;;;;;;14.90;99.90;;;;;;5098305;28;19974;-78
2022/06/10 06:30:54;;;;;;;;;;;15.00;99.90;;;;;;5080673;28;19924;-77
2022/06/10 06:33:20;;;;;;;;;;;15.10;99.90;;;;;;5080377;28;19952;-77
2022/06/10 06:35:48;;;;;;;;;;;15.10;99.90;;;;;;5097432;28;19923;-77
2022/06/10 06:38:14;;;;;;;;;;;15.20;99.90;;;;;;5097395;28;19924;-77
2022/06/10 06:40:41;;;;;;;;;;;15.20;99.90;;;;;;5097092;28;19923;-77
2022/06/10 06:43:08;;;;;;;;;;;15.30;99.90;;;;;;5097300;28;20014;-77
2022/06/10 06:45:34;;;;;;;;;;;15.40;99.90;;;;;;5063973;28;19924;-77
2022/06/10 06:48:01;;;;;;;;;;;15.40;99.90;;;;;;5080605;28;19927;-77
2022/06/10 06:50:28;;;;;;;;;;;15.50;99.90;;;;;;5097298;28;19962;-78
2022/06/10 06:52:53;;;;;;;;;;;15.50;99.90;;;;;;5096822;28;19932;-77
2022/06/10 06:55:20;;;;;;;;;;;15.60;99.90;;;;;;5097118;28;19993;-77
2022/06/10 06:57:47;;;;;;;;;;;15.70;99.90;;;;;;5080130;28;19923;-79
2022/06/10 07:00:16;;;;;;;;;;;15.70;99.90;;;;;;5097110;28;19977;-77
2022/06/10 07:02:42;;;;;;;;;;;15.80;99.90;;;;;;5079336;28;20019;-78
2022/06/10 07:05:08;;;;;;;;;;;15.90;99.90;;;;;;5080049;28;20367;-79
2022/06/10 07:07:33;;;;;;;;;;;15.90;99.90;;;;;;5080711;28;19992;-78
2022/06/10 07:09:59;;;;;;;;;;;15.90;99.90;;;;;;5097150;28;20014;-78
2022/06/10 07:12:24;;;;;;;;;;;15.90;99.90;;;;;;5080647;28;19946;-78
2022/06/10 07:14:50;;;;;;;;;;;15.90;99.90;;;;;;5079912;28;20312;-78
2022/06/10 07:17:17;;;;;;;;;;;15.90;99.90;;;;;;5079801;28;19930;-78
2022/06/10 07:19:42;;;;;;;;;;;15.90;99.90;;;;;;5096666;28;19924;-78
2022/06/10 07:22:08;;;;;;;;;;;15.90;99.90;;;;;;5079674;28;19958;-78
2022/06/10 07:24:34;;;;;;;;;;;15.90;99.90;;;;;;5096693;28;19923;-78
2022/06/10 07:27:00;;;;;;;;;;;15.80;99.90;;;;;;5079422;28;20099;-78
2022/06/10 07:29:27;;;;;;;;;;;15.80;99.90;;;;;;5080415;28;19931;-78
2022/06/10 07:31:53;;;;;;;;;;;15.80;99.90;;;;;;5063529;28;20366;-78
2022/06/10 07:34:18;;;;;;;;;;;15.90;99.90;;;;;;5079590;28;20477;-78
2022/06/10 07:36:44;;;;;;;;;;;16.00;99.90;;;;;;5079645;28;19927;-78
2022/06/10 07:39:10;;;;;;;;;;;16.00;99.90;;;;;;5079568;28;20333;-78
2022/06/10 07:44:20;;;;;;;;;;;16.00;99.90;;;;;;5093779;28;19946;-77
2022/06/10 07:46:48;;;;;;;;;;;16.00;99.90;;;;;;5076416;28;19924;-77
2022/06/10 07:49:14;;;;;;;;;;;15.90;99.90;;;;;;5076033;28;20374;-77
2022/06/10 07:51:39;;;;;;;;;;;15.90;99.90;;;;;;5076069;28;19924;-77
2022/06/10 07:54:05;;;;;;;;;;;15.80;99.90;;;;;;5059350;28;19924;-81
2022/06/10 07:56:30;;;;;;;;;;;15.90;99.90;;;;;;5093385;28;20225;-78
2022/06/10 07:58:58;;;;;;;;;;;15.80;99.90;;;;;;5092813;28;19928;-77
2022/06/10 08:01:25;;;;;;;;;;;15.80;99.90;;;;;;5092714;28;19928;-77
2022/06/10 08:03:50;;;;;;;;;;;15.70;99.90;;;;;;5075955;28;19980;-78
2022/06/10 08:06:17;;;;;;;;;;;15.70;99.90;;;;;;5092739;28;19991;-77
2022/06/10 08:08:43;;;;;;;;;;;15.80;99.90;;;;;;5075927;28;19928;-77
2022/06/10 08:11:08;;;;;;;;;;;15.90;99.90;;;;;;5076650;28;19924;-78
2022/06/10 08:13:34;;;;;;;;;;;16.00;99.90;;;;;;5095679;28;20287;-77
2022/06/10 08:16:00;;;;;;;;;;;16.00;99.90;;;;;;5080784;28;19967;-77
2022/06/10 08:18:26;;;;;;;;;;;16.10;99.90;;;;;;5096483;28;19924;-77
2022/06/10 08:23:37;;;;;;;;;;;16.10;99.90;;;;;;5096687;28;19932;-77
2022/06/10 08:26:05;;;;;;;;;;;16.10;99.90;;;;;;5096666;28;19924;-77
2022/06/10 08:28:30;;;;;;;;;;;16.10;99.90;;;;;;5096443;28;19924;-79
2022/06/10 08:30:56;;;;;;;;;;;16.10;99.90;;;;;;5096533;28;19924;-77
2022/06/10 08:33:22;;;;;;;;;;;16.10;99.90;;;;;;5096470;28;19924;-77
2022/06/10 08:35:47;;;;;;;;;;;16.10;99.90;;;;;;5079569;28;19924;-77
2022/06/10 08:38:14;;;;;;;;;;;16.10;99.90;;;;;;5079644;28;19924;-78
2022/06/10 08:40:49;;;;;;;;;;;16.10;99.90;;;;;;5096210;28;20287;-78
2022/06/10 08:43:26;;;;;;;;;;;16.20;99.90;;;;;;5079629;28;20031;-77
2022/06/10 08:45:58;;;;;;;;;;;16.20;99.90;;;;;;5079614;28;20279;-77
2022/06/10 08:48:29;;;;;;;;;;;16.20;99.90;;;;;;5097003;28;19928;-77
2022/06/10 08:51:10;;;;;;;;;;;16.20;99.90;;;;;;5079285;28;19950;-76
2022/06/10 08:53:41;;;;;;;;;;;16.30;99.90;;;;;;5096888;28;19932;-77
2022/06/10 08:56:10;;;;;;;;;;;16.50;99.90;;;;;;5079136;28;20011;-81
2022/06/10 08:58:39;;;;;;;;;;;16.70;99.90;;;;;;5095663;28;19920;-76
2022/06/10 09:01:13;;;;;;;;;;;16.70;99.90;;;;;;5095831;28;20372;-77
2022/06/10 09:03:41;;;;;;;;;;;16.80;99.90;;;;;;5095897;28;19946;-77
2022/06/10 09:06:09;;;;;;;;;;;16.80;99.90;;;;;;5078963;28;19982;-78
2022/06/10 09:08:37;;;;;;;;;;;16.90;99.90;;;;;;5078613;28;19934;-77
2022/06/10 09:11:09;;;;;;;;;;;16.90;99.90;;;;;;5078447;28;20380;-77
2022/06/10 09:13:40;;;;;;;;;;;17.00;99.90;;;;;;5095667;28;19987;-77
2022/06/10 09:16:08;;;;;;;;;;;17.20;99.90;;;;;;5078505;28;20029;-77
2022/06/10 09:18:43;;;;;;;;;;;17.40;99.90;;;;;;5080762;28;19989;-77
2022/06/10 09:21:14;;;;;;;;;;;17.50;99.90;;;;;;5081765;28;19924;-78
2022/06/10 09:23:42;;;;;;;;;;;17.60;99.90;;;;;;5096349;28;20323;-77
2022/06/10 09:26:10;;;;;;;;;;;17.70;99.90;;;;;;5077804;28;19920;-77
2022/06/10 09:28:39;;;;;;;;;;;17.70;99.90;;;;;;5079336;28;19950;-77
2022/06/10 09:31:25;;;;;;;;;;;17.60;99.90;;;;;;5062104;28;19931;-76
2022/06/10 09:33:54;;;;;;;;;;;17.60;99.90;;;;;;5071015;28;19928;-78
2022/06/10 09:36:30;;;;;;;;;;;17.70;99.90;;;;;;5078394;28;19928;-78
2022/06/10 09:39:04;;;;;;;;;;;17.70;99.90;;;;;;5095285;28;20279;-78
2022/06/10 09:41:29;;;;;;;;;;;17.80;99.90;;;;;;5094936;28;19931;-76
2022/06/10 09:43:55;;;;;;;;;;;18.00;99.90;;;;;;5094944;28;19924;-76
2022/06/10 09:46:35;;;;;;;;;;;18.20;99.90;;;;;;5095176;28;19928;-76
2022/06/10 09:49:20;;;;;;;;;;;18.30;99.90;;;;;;5078507;28;20232;-76
2022/06/10 09:52:01;;;;;;;;;;;18.40;99.90;;;;;;5078424;28;19928;-75
2022/06/10 09:54:26;;;;;;;;;;;18.30;99.90;;;;;;5095239;28;19990;-76
2022/06/10 09:56:55;;;;;;;;;;;18.40;99.90;;;;;;5094792;28;19932;-76
2022/06/10 09:59:20;;;;;;;;;;;18.10;99.90;;;;;;5078045;28;19928;-78
2022/06/10 10:01:53;;;;;;;;;;;18.10;99.90;;;;;;5077984;28;19931;-76
2022/06/10 10:04:19;;;;;;;;;;;18.10;99.90;;;;;;5078194;28;19924;-76
2022/06/10 10:06:55;;;;;;;;;;;18.20;99.90;;;;;;5094776;28;19927;-76
2022/06/10 10:09:28;;;;;;;;;;;18.30;99.90;;;;;;5077896;28;19935;-77
2022/06/10 10:11:57;;;;;;;;;;;18.30;99.90;;;;;;5094956;28;19973;-76
2022/06/10 10:14:32;;;;;;;;;;;18.30;99.90;;;;;;5094592;28;19924;-78
2022/06/10 10:17:21;;;;;;;;;;;18.30;99.90;;;;;;5094334;28;20007;-78
2022/06/10 10:19:59;;;;;;;;;;;18.40;99.90;;;;;;5086080;28;19920;-78
2022/06/10 10:22:44;;;;;;;;;;;18.20;99.90;;;;;;5077780;28;19924;-78
2022/06/10 10:25:18;;;;;;;;;;;18.10;99.90;;;;;;5077864;28;20007;-83
2022/06/10 10:27:45;;;;;;;;;;;18.10;99.90;;;;;;5095157;28;20024;-78
2022/06/10 10:30:25;;;;;;;;;;;18.20;99.90;;;;;;5094339;28;19981;-79
2022/06/10 10:32:54;;;;;;;;;;;18.00;99.90;;;;;;5094306;28;19928;-78
2022/06/10 10:35:23;;;;;;;;;;;18.00;99.90;;;;;;5093848;28;19978;-78
2022/06/10 10:37:57;;;;;;;;;;;17.90;99.90;;;;;;5094441;28;20377;-78
2022/06/10 10:40:30;;;;;;;;;;;18.00;99.90;;;;;;5094321;28;19924;-78
2022/06/10 10:42:58;;;;;;;;;;;18.00;99.90;;;;;;5077238;28;20372;-79
2022/06/10 10:45:34;;;;;;;;;;;17.90;99.90;;;;;;5077168;28;19924;-78
2022/06/10 10:48:21;;;;;;;;;;;18.00;99.90;;;;;;5077892;28;20298;-78
2022/06/10 10:50:55;;;;;;;;;;;18.00;99.90;;;;;;5094231;28;19973;-78
2022/06/10 10:53:29;;;;;;;;;;;18.10;99.90;;;;;;5094121;28;19932;-79
2022/06/10 10:55:56;;;;;;;;;;;18.40;99.90;;;;;;5077694;28;20006;-78
2022/06/10 10:58:33;;;;;;;;;;;18.80;99.90;;;;;;5093989;28;19920;-79
2022/06/10 11:01:04;;;;;;;;;;;19.10;99.90;;;;;;5093865;28;19986;-76
2022/06/10 11:03:32;;;;;;;;;;;19.30;99.90;;;;;;5094492;28;19928;-76
2022/06/10 11:05:59;;;;;;;;;;;19.30;99.90;;;;;;5093629;28;19943;-77
2022/06/10 11:08:36;;;;;;;;;;;19.10;99.90;;;;;;5093873;28;19925;-76
2022/06/10 11:11:13;;;;;;;;;;;19.20;99.90;;;;;;5076607;28;19977;-77
2022/06/10 11:13:49;;;;;;;;;;;19.10;99.90;;;;;;5076611;28;19932;-76
2022/06/10 11:16:31;;;;;;;;;;;19.10;99.90;;;;;;5076815;28;19924;-77
2022/06/10 11:19:00;;;;;;;;;;;19.20;99.90;;;;;;5093763;28;20014;-76
2022/06/10 11:21:26;;;;;;;;;;;19.50;99.90;;;;;;5093858;28;19990;-77
2022/06/10 11:23:56;;;;;;;;;;;19.80;99.90;;;;;;5059835;28;20360;-76
2022/06/10 11:26:22;;;;;;;;;;;20.10;99.90;;;;;;5093599;28;19998;-77
2022/06/10 11:28:49;;;;;;;;;;;20.30;99.90;;;;;;5093334;28;20014;-77
2022/06/10 11:31:18;;;;;;;;;;;20.30;99.90;;;;;;5076628;28;20252;-77
2022/06/10 11:33:44;;;;;;;;;;;20.30;99.90;;;;;;5076189;28;19924;-77
2022/06/10 11:36:11;;;;;;;;;;;20.20;99.90;;;;;;5093228;28;19928;-82
2022/06/10 11:38:45;;;;;;;;;;;20.00;99.90;;;;;;5093266;28;19986;-77
2022/06/10 11:41:25;;;;;;;;;;;19.70;99.90;;;;;;5092857;28;20011;-78
2022/06/10 11:43:54;;;;;;;;;;;19.40;99.90;;;;;;5093880;28;19928;-79
2022/06/10 11:46:46;;;;;;;;;;;19.30;99.90;;;;;;5093283;28;19931;-77
2022/06/10 11:49:30;;;;;;;;;;;19.20;99.90;;;;;;5069167;28;19924;-77
2022/06/10 11:52:10;;;;;;;;;;;19.20;99.90;;;;;;5092912;28;19994;-77
2022/06/10 11:54:47;;;;;;;;;;;19.30;99.90;;;;;;5093285;28;19920;-76
2022/06/10 12:00:16;;;;;;;;;;;19.40;99.90;;;;;;5093685;28;19986;-77
2022/06/10 12:03:05;;;;;;;;;;;20.20;99.90;;;;;;5076202;28;19927;-81
2022/06/10 12:05:44;;;;;;;;;;;20.40;99.90;;;;;;5093731;28;19936;-77
2022/06/10 12:08:24;;;;;;;;;;;20.50;99.90;;;;;;5093587;28;19978;-77
2022/06/10 12:10:53;;;;;;;;;;;20.50;99.90;;;;;;5093634;28;19925;-77
2022/06/10 12:13:20;;;;;;;;;;;20.50;99.90;;;;;;5093596;28;19928;-77
2022/06/10 12:15:52;;;;;;;;;;;21.10;99.90;;;;;;5092887;28;20061;-77
2022/06/10 12:18:18;;;;;;;;;;;21.20;99.90;;;;;;5092982;28;20333;-76
2022/06/10 12:20:59;;;;;;;;;;;20.90;99.90;;;;;;5093357;28;19975;-77
2022/06/10 12:23:26;;;;;;;;;;;20.80;99.90;;;;;;5076137;28;19924;-77
2022/06/10 12:26:10;;;;;;;;;;;20.70;99.90;;;;;;5075923;28;19974;-77
2022/06/10 12:28:36;;;;;;;;;;;20.80;99.90;;;;;;5075668;28;19925;-77
2022/06/10 12:31:07;;;;;;;;;;;21.00;99.90;;;;;;5075851;28;19924;-78
2022/06/10 12:33:44;;;;;;;;;;;20.90;99.90;;;;;;5093244;28;19977;-76
2022/06/10 12:36:14;;;;;;;;;;;20.80;99.90;;;;;;5092478;28;19924;-77
2022/06/10 12:38:40;;;;;;;;;;;20.50;99.90;;;;;;5075405;28;20383;-77
2022/06/10 12:41:05;;;;;;;;;;;20.30;99.90;;;;;;5058370;28;19924;-77
2022/06/10 12:43:33;;;;;;;;;;;20.40;99.90;;;;;;5092143;28;19924;-76
2022/06/10 12:46:03;;;;;;;;;;;20.30;99.90;;;;;;5092321;28;19920;-75
2022/06/10 12:48:34;;;;;;;;;;;20.10;99.90;;;;;;5093217;28;19973;-75
2022/06/10 12:51:06;;;;;;;;;;;20.30;99.90;;;;;;5093201;28;19923;-75
2022/06/10 12:53:50;;;;;;;;;;;20.40;99.90;;;;;;5092285;28;19924;-76
2022/06/10 12:56:37;;;;;;;;;;;21.00;99.90;;;;;;5092156;28;20360;-75
2022/06/10 12:59:09;;;;;;;;;;;21.60;99.90;;;;;;5092396;28;19954;-75
2022/06/10 13:01:35;;;;;;;;;;;22.10;99.90;;;;;;5078623;28;20380;-75
2022/06/10 13:04:05;;;;;;;;;;;22.70;99.90;;;;;;5095875;28;19954;-77
2022/06/10 13:06:42;;;;;;;;;;;22.70;99.90;;;;;;5095577;28;19953;-75
2022/06/10 13:09:11;;;;;;;;;;;22.40;99.90;;;;;;5095517;28;19924;-75
2022/06/10 13:11:37;;;;;;;;;;;22.20;99.90;;;;;;5079624;28;19931;-76
2022/06/10 13:14:09;;;;;;;;;;;22.10;99.90;;;;;;5095697;28;19924;-75
2022/06/10 13:16:42;;;;;;;;;;;22.60;99.90;;;;;;5095693;28;19928;-75
2022/06/10 13:19:27;;;;;;;;;;;22.50;99.90;;;;;;5095677;28;20085;-76
2022/06/10 13:21:52;;;;;;;;;;;22.50;99.90;;;;;;5095295;28;20410;-77
2022/06/10 13:24:19;;;;;;;;;;;22.50;99.90;;;;;;5062342;28;19924;-76
2022/06/10 13:26:45;;;;;;;;;;;22.40;99.90;;;;;;5078632;28;19924;-77
2022/06/10 13:29:15;;;;;;;;;;;22.30;99.90;;;;;;5095768;28;19951;-78
2022/06/10 13:31:57;;;;;;;;;;;22.10;99.90;;;;;;5078828;28;20077;-76
2022/06/10 13:34:27;;;;;;;;;;;22.70;99.90;;;;;;5095609;28;20385;-78
2022/06/10 13:37:00;;;;;;;;;;;23.30;99.90;;;;;;5078720;28;20294;-81
2022/06/10 13:39:28;;;;;;;;;;;23.20;99.90;;;;;;5095283;28;19943;-76
2022/06/10 13:41:54;;;;;;;;;;;23.00;99.90;;;;;;5094816;28;19924;-80
2022/06/10 13:44:25;;;;;;;;;;;22.90;99.90;;;;;;5095244;28;19924;-77
2022/06/10 13:46:52;;;;;;;;;;;23.40;99.90;;;;;;5078311;28;19932;-77
2022/06/10 13:49:42;;;;;;;;;;;23.20;99.90;;;;;;5078454;28;19932;-78
2022/06/10 13:52:27;;;;;;;;;;;23.30;99.90;;;;;;5094777;28;20022;-75
2022/06/10 13:54:53;;;;;;;;;;;23.90;99.90;;;;;;5094973;28;19924;-76
2022/06/10 13:57:39;;;;;;;;;;;24.30;99.90;;;;;;5095667;28;20389;-75
2022/06/10 14:00:09;;;;;;;;;;;23.90;99.90;;;;;;5078667;28;19947;-75
2022/06/10 14:02:38;;;;;;;;;;;24.20;99.90;;;;;;5094805;28;19924;-75
2022/06/10 14:05:04;;;;;;;;;;;24.30;99.90;;;;;;5094954;28;19920;-76
2022/06/10 14:07:38;;;;;;;;;;;24.10;99.90;;;;;;5077829;28;20233;-75
2022/06/10 14:10:15;;;;;;;;;;;23.90;99.90;;;;;;5095375;28;20259;-75
2022/06/10 14:12:51;;;;;;;;;;;23.70;99.90;;;;;;5094662;28;20303;-76
2022/06/10 14:15:17;;;;;;;;;;;23.60;99.90;;;;;;5094581;28;19924;-76
2022/06/10 14:17:50;;;;;;;;;;;23.20;99.90;;;;;;5077684;28;19931;-76
2022/06/10 14:20:16;;;;;;;;;;;23.10;99.90;;;;;;5094425;28;20312;-77
2022/06/10 14:22:46;;;;;;;;;;;22.90;99.90;;;;;;5095187;28;19924;-79
2022/06/10 14:25:14;;;;;;;;;;;22.90;99.90;;;;;;5094726;28;20341;-78
2022/06/10 14:27:41;;;;;;;;;;;22.80;99.90;;;;;;5094385;28;19950;-77
2022/06/10 14:30:17;;;;;;;;;;;22.80;99.90;;;;;;5094307;28;20276;-77
2022/06/10 14:32:59;;;;;;;;;;;22.80;99.90;;;;;;5077703;28;20015;-78
2022/06/10 14:35:39;;;;;;;;;;;22.60;99.90;;;;;;5077619;28;20019;-77
2022/06/10 14:38:05;;;;;;;;;;;22.70;99.90;;;;;;5094157;28;19947;-78
2022/06/10 14:40:31;;;;;;;;;;;22.50;99.90;;;;;;5093790;28;20368;-78
2022/06/10 14:43:15;;;;;;;;;;;22.60;99.90;;;;;;5077535;28;19974;-78
2022/06/10 14:45:41;;;;;;;;;;;22.50;99.90;;;;;;5094476;28;19928;-76